createdAt,value
2022-11-24T00:01:26.258Z,8.97
2022-11-24T00:04:00.858Z,9.37
2022-11-24T00:06:28.354Z,9.30
2022-11-24T00:08:55.086Z,7.70
2022-11-24T00:11:24.041Z,7.20
2022-11-24T00:13:50.971Z,8.37
2022-11-24T00:16:20.530Z,7.97
2022-11-24T00:18:49.263Z,7.57
2022-11-24T00:21:17.098Z,6.97
2022-11-24T00:23:44.324Z,7.50
2022-11-24T00:26:13.492Z,7.00
2022-11-24T00:28:41.071Z,8.00
2022-11-24T00:31:18.137Z,7.57
2022-11-24T00:33:46.385Z,7.77
2022-11-24T00:36:13.105Z,7.10
2022-11-24T00:38:39.789Z,8.30
2022-11-24T00:41:06.762Z,7.53
2022-11-24T00:43:33.394Z,7.40
2022-11-24T00:45:59.979Z,7.30
2022-11-24T00:48:26.542Z,7.60
2022-11-24T00:51:01.563Z,7.97
2022-11-24T00:53:28.884Z,7.90
2022-11-24T00:55:55.624Z,8.10
2022-11-24T00:58:23.781Z,7.57
2022-11-24T01:00:51.258Z,7.70
2022-11-24T01:03:19.839Z,7.63
2022-11-24T01:05:46.292Z,8.60
2022-11-24T01:08:12.719Z,8.40
2022-11-24T01:10:39.261Z,8.30
2022-11-24T01:13:06.014Z,8.13
2022-11-24T01:15:35.585Z,8.67
2022-11-24T01:18:02.262Z,11.23
2022-11-24T01:20:28.609Z,11.33
2022-11-24T01:22:54.965Z,12.87
2022-11-24T01:25:21.374Z,11.80
2022-11-24T01:27:47.730Z,9.60
2022-11-24T01:30:14.263Z,8.13
2022-11-24T01:32:40.630Z,9.17
2022-11-24T01:35:07.791Z,8.30
2022-11-24T01:37:34.256Z,8.33
2022-11-24T01:40:00.648Z,7.40
2022-11-24T01:42:37.210Z,8.20
2022-11-24T01:45:42.268Z,7.43
2022-11-24T01:48:38.701Z,7.87
2022-11-24T01:51:12.694Z,7.30
2022-11-24T01:53:43.975Z,7.70
2022-11-24T01:56:12.256Z,7.30
2022-11-24T01:58:41.006Z,7.13
2022-11-24T02:01:08.610Z,8.00
2022-11-24T02:03:39.029Z,9.33
2022-11-24T02:06:21.972Z,8.13
2022-11-24T02:09:00.579Z,8.37
2022-11-24T02:11:33.561Z,9.50
2022-11-24T02:14:00.475Z,9.03
2022-11-24T02:16:27.293Z,8.63
2022-11-24T02:18:53.841Z,8.37
2022-11-24T02:21:20.358Z,8.13
2022-11-24T02:23:46.638Z,9.27
2022-11-24T02:26:44.086Z,8.53
2022-11-24T02:29:12.812Z,8.20
2022-11-24T02:31:44.393Z,8.57
2022-11-24T02:34:10.736Z,8.47
2022-11-24T02:36:37.194Z,7.13
2022-11-24T02:39:05.467Z,8.77
2022-11-24T02:41:31.994Z,7.53
2022-11-24T02:44:02.069Z,7.77
2022-11-24T02:46:28.464Z,7.20
2022-11-24T02:48:55.012Z,7.40
2022-11-24T02:51:21.505Z,6.83
2022-11-24T02:53:47.882Z,6.47
2022-11-24T02:56:14.300Z,6.87
2022-11-24T02:58:40.822Z,6.40
2022-11-24T03:01:07.293Z,6.80
2022-11-24T03:03:33.774Z,6.40
2022-11-24T03:06:00.210Z,6.27
2022-11-24T03:08:26.597Z,6.53
2022-11-24T03:10:52.934Z,6.17
2022-11-24T03:13:19.338Z,6.73
2022-11-24T03:15:45.792Z,6.73
2022-11-24T03:18:12.235Z,6.00
2022-11-24T03:20:38.569Z,6.30
2022-11-24T03:23:05.076Z,6.63
2022-11-24T03:25:31.522Z,6.40
2022-11-24T03:28:00.392Z,6.47
2022-11-24T03:30:26.880Z,6.40
2022-11-24T03:32:53.982Z,6.10
2022-11-24T03:35:21.474Z,6.10
2022-11-24T03:37:47.842Z,6.10
2022-11-24T03:40:14.830Z,6.73
2022-11-24T03:42:41.238Z,5.73
2022-11-24T03:45:44.812Z,5.83
2022-11-24T03:47:54.377Z,6.50
2022-11-24T03:50:20.762Z,6.47
2022-11-24T03:52:47.097Z,6.47
2022-11-24T03:55:13.550Z,6.23
2022-11-24T03:57:39.883Z,6.20
2022-11-24T04:00:06.864Z,7.00
2022-11-24T04:02:33.446Z,6.57
2022-11-24T04:04:59.796Z,6.47
2022-11-24T04:07:26.195Z,5.50
2022-11-24T04:09:52.634Z,6.13
2022-11-24T04:12:37.666Z,5.67
2022-11-24T04:15:04.363Z,5.53
2022-11-24T04:17:30.660Z,5.80
2022-11-24T04:19:56.994Z,5.67
2022-11-24T04:22:23.275Z,5.93
2022-11-24T04:24:49.586Z,6.27
2022-11-24T04:27:15.957Z,5.47
2022-11-24T04:29:42.381Z,7.20
2022-11-24T04:32:08.889Z,7.50
2022-11-24T04:34:36.133Z,7.50
2022-11-24T04:37:02.726Z,6.93
2022-11-24T04:39:29.165Z,6.00
2022-11-24T04:41:55.816Z,6.43
2022-11-24T04:44:22.202Z,6.53
2022-11-24T04:46:48.539Z,6.33
2022-11-24T04:49:15.017Z,6.60
2022-11-24T04:51:41.934Z,6.07
2022-11-24T04:54:11.279Z,6.63
2022-11-24T04:56:37.639Z,6.20
2022-11-24T04:59:08.174Z,6.60
2022-11-24T05:01:35.063Z,5.83
2022-11-24T05:04:01.537Z,5.83
2022-11-24T05:06:27.901Z,6.10
2022-11-24T05:08:54.221Z,5.97
2022-11-24T05:11:20.562Z,5.50
2022-11-24T05:13:46.892Z,5.73
2022-11-24T05:16:13.217Z,5.77
2022-11-24T05:18:39.599Z,5.30
2022-11-24T05:21:09.113Z,5.33
2022-11-24T05:23:35.709Z,5.63
2022-11-24T05:26:02.292Z,5.70
2022-11-24T05:28:29.145Z,5.27
2022-11-24T05:30:59.458Z,5.57
2022-11-24T05:33:28.421Z,5.10
2022-11-24T05:35:54.934Z,5.23
2022-11-24T05:38:22.558Z,4.87
2022-11-24T05:40:48.973Z,4.57
2022-11-24T05:43:16.605Z,5.30
2022-11-24T05:45:44.148Z,5.93
2022-11-24T05:48:13.401Z,5.47
2022-11-24T05:50:40.309Z,5.30
2022-11-24T05:53:09.548Z,5.63
2022-11-24T05:55:36.429Z,4.97
2022-11-24T05:58:05.160Z,5.30
2022-11-24T06:00:33.294Z,5.07
2022-11-24T06:03:00.274Z,5.43
2022-11-24T06:05:28.218Z,5.57
2022-11-24T06:07:55.176Z,5.43
2022-11-24T06:10:23.893Z,5.30
2022-11-24T06:12:50.737Z,5.53
2022-11-24T06:15:17.344Z,5.80
2022-11-24T06:17:43.939Z,6.60
2022-11-24T06:20:11.119Z,6.07
2022-11-24T06:22:38.089Z,5.67
2022-11-24T06:25:04.756Z,6.00
2022-11-24T06:27:31.118Z,5.47
2022-11-24T06:29:57.725Z,5.73
2022-11-24T06:32:24.177Z,5.57
2022-11-24T06:34:50.506Z,5.53
2022-11-24T06:37:16.971Z,5.97
2022-11-24T06:39:43.298Z,5.13
2022-11-24T06:42:09.646Z,4.87
2022-11-24T06:44:36.211Z,5.60
2022-11-24T06:47:02.761Z,5.40
2022-11-24T06:49:29.248Z,5.33
2022-11-24T06:51:55.790Z,6.40
2022-11-24T06:54:22.182Z,6.90
2022-11-24T06:56:48.579Z,6.87
2022-11-24T06:59:20.421Z,6.93
2022-11-24T07:01:46.992Z,6.00
2022-11-24T07:04:13.975Z,6.33
2022-11-24T07:06:41.258Z,6.00
2022-11-24T07:09:12.132Z,5.97
2022-11-24T07:11:39.550Z,5.93
2022-11-24T07:14:06.150Z,6.50
2022-11-24T07:16:33.257Z,6.30
2022-11-24T07:19:00.109Z,6.00
2022-11-24T07:21:27.716Z,6.20
2022-11-24T07:23:56.103Z,6.63
2022-11-24T07:26:23.661Z,5.97
2022-11-24T07:28:50.715Z,6.60
2022-11-24T07:31:20.690Z,6.80
2022-11-24T07:33:54.940Z,6.40
2022-11-24T07:36:22.555Z,6.77
2022-11-24T07:38:49.217Z,6.40
2022-11-24T07:41:17.848Z,6.93
2022-11-24T07:43:44.182Z,5.70
2022-11-24T07:46:14.014Z,6.40
2022-11-24T07:48:40.765Z,6.60
2022-11-24T07:51:08.240Z,6.87
2022-11-24T07:53:35.553Z,6.07
2022-11-24T07:56:04.852Z,5.77
2022-11-24T07:58:33.478Z,6.43
2022-11-24T08:01:00.621Z,5.40
2022-11-24T08:03:27.569Z,6.10
2022-11-24T08:08:45.232Z,6.67
2022-11-24T08:11:16.963Z,7.03
2022-11-24T08:13:44.210Z,6.60
2022-11-24T08:16:13.413Z,6.23
2022-11-24T08:18:39.859Z,7.00
2022-11-24T08:21:07.050Z,6.83
2022-11-24T08:23:34.096Z,8.20
2022-11-24T08:26:09.106Z,7.07
2022-11-24T08:28:36.009Z,6.40
2022-11-24T08:31:04.968Z,6.23
2022-11-24T08:33:31.544Z,6.17
2022-11-24T08:36:03.668Z,4.50
2022-11-24T08:38:30.008Z,4.53
2022-11-24T08:41:00.889Z,4.90
2022-11-24T08:43:27.234Z,3.57
2022-11-24T08:45:53.702Z,3.93
2022-11-24T08:48:20.053Z,3.47
2022-11-24T08:50:46.397Z,3.20
2022-11-24T08:53:12.798Z,3.87
2022-11-24T08:55:39.086Z,3.40
2022-11-24T08:58:05.360Z,4.00
2022-11-24T09:00:31.767Z,3.33
2022-11-24T09:02:58.866Z,3.33
2022-11-24T09:05:50.619Z,3.00
2022-11-24T09:08:12.041Z,3.40
2022-11-24T09:10:38.446Z,2.73
2022-11-24T09:13:04.795Z,3.07
2022-11-24T09:15:31.088Z,3.33
2022-11-24T09:17:57.614Z,2.80
2022-11-24T09:20:24.109Z,2.83
2022-11-24T09:22:50.491Z,2.73
2022-11-24T09:25:17.172Z,2.73
2022-11-24T09:27:43.466Z,3.50
2022-11-24T09:30:10.458Z,2.90
2022-11-24T09:32:37.577Z,2.93
2022-11-24T09:35:04.351Z,2.90
2022-11-24T09:37:32.929Z,3.03
2022-11-24T09:39:59.453Z,2.90
2022-11-24T09:42:53.936Z,3.20
2022-11-24T09:46:04.065Z,3.67
2022-11-24T09:48:30.848Z,3.70
2022-11-24T09:51:00.897Z,3.53
2022-11-24T09:53:56.932Z,3.00
2022-11-24T09:56:29.897Z,3.77
2022-11-24T09:59:05.219Z,3.10
2022-11-24T10:01:41.677Z,3.40
2022-11-24T10:04:19.454Z,3.67
2022-11-24T10:07:09.524Z,2.83
2022-11-24T10:10:06.207Z,3.10
2022-11-24T10:12:57.141Z,3.13
2022-11-24T10:15:34.780Z,3.33
2022-11-24T10:18:16.400Z,2.93
2022-11-24T10:21:25.725Z,2.87
2022-11-24T10:24:23.128Z,2.70
2022-11-24T10:27:02.007Z,2.37
2022-11-24T10:29:40.338Z,2.23
2022-11-24T10:32:31.817Z,2.53
2022-11-24T10:35:14.862Z,2.30
2022-11-24T10:37:51.069Z,2.40
2022-11-24T10:40:56.953Z,2.00
2022-11-24T10:43:26.732Z,1.70
2022-11-24T10:45:53.300Z,2.07
2022-11-24T10:48:26.059Z,1.93
2022-11-24T10:51:08.160Z,1.87
2022-11-24T10:53:35.862Z,4.00
2022-11-24T10:56:05.069Z,1.93
2022-11-24T10:58:38.415Z,1.37
2022-11-24T11:01:14.320Z,1.63
2022-11-24T11:03:57.988Z,1.43
2022-11-24T11:06:27.014Z,1.87
2022-11-24T11:09:18.958Z,1.67
2022-11-24T11:11:48.241Z,2.10
2022-11-24T11:14:31.161Z,1.83
2022-11-24T11:16:57.935Z,1.50
2022-11-24T11:19:50.363Z,1.83
2022-11-24T11:22:26.588Z,2.17
2022-11-24T11:25:09.310Z,1.67
2022-11-24T11:27:36.549Z,1.60
2022-11-24T11:36:10.668Z,1.90
2022-11-24T11:38:39.555Z,1.80
2022-11-24T11:41:13.860Z,1.70
2022-11-24T11:43:41.262Z,2.87
2022-11-24T11:46:18.277Z,1.90
2022-11-24T11:48:46.741Z,1.40
2022-11-24T11:51:31.688Z,1.50
2022-11-24T11:54:12.978Z,1.60
2022-11-24T11:56:45.899Z,1.53
2022-11-24T11:59:41.730Z,1.70
2022-11-24T12:02:26.011Z,1.70
2022-11-24T12:05:20.408Z,1.80
2022-11-24T12:08:21.543Z,2.20
2022-11-24T12:10:59.805Z,1.60
2022-11-24T12:13:44.536Z,1.77
2022-11-24T12:16:35.009Z,1.33
2022-11-24T12:19:16.609Z,1.37
2022-11-24T12:21:50.226Z,1.33
2022-11-24T12:24:55.145Z,1.43
2022-11-24T12:27:33.183Z,1.40
2022-11-24T12:30:12.414Z,1.50
2022-11-24T12:32:44.953Z,1.47
2022-11-24T12:35:14.434Z,1.30
2022-11-24T12:37:58.417Z,1.40
2022-11-24T12:41:33.715Z,1.37
2022-11-24T12:43:55.235Z,1.40
2022-11-24T12:46:30.352Z,1.67
2022-11-24T12:49:06.107Z,1.47
2022-11-24T12:51:37.323Z,1.60
2022-11-24T12:54:10.319Z,1.50
2022-11-24T12:56:49.326Z,1.20
2022-11-24T12:59:39.340Z,1.30
2022-11-24T13:02:20.815Z,1.17
2022-11-24T13:04:51.821Z,1.30
2022-11-24T13:07:37.862Z,1.67
2022-11-24T13:10:46.476Z,1.47
2022-11-24T13:13:13.300Z,1.93
2022-11-24T13:16:34.561Z,1.57
2022-11-24T13:18:55.627Z,2.10
2022-11-24T13:21:29.250Z,1.30
2022-11-24T13:24:02.322Z,1.53
2022-11-24T13:26:32.420Z,1.47
2022-11-24T13:29:13.357Z,1.63
2022-11-24T13:31:50.589Z,1.27
2022-11-24T13:34:38.930Z,1.33
2022-11-24T13:37:40.539Z,1.60
2022-11-24T13:40:29.661Z,1.60
2022-11-24T13:42:56.104Z,1.37
2022-11-24T13:45:45.041Z,1.37
2022-11-24T13:48:21.434Z,1.30
2022-11-24T13:50:51.760Z,1.40
2022-11-24T13:53:31.878Z,1.37
2022-11-24T13:56:00.530Z,1.40
2022-11-24T13:58:51.033Z,1.57
2022-11-24T14:01:20.286Z,1.30
2022-11-24T14:04:34.006Z,1.60
2022-11-24T14:07:09.035Z,1.57
2022-11-24T14:09:48.153Z,1.97
2022-11-24T14:12:25.353Z,1.80
2022-11-24T14:14:56.574Z,1.50
2022-11-24T14:17:26.655Z,1.60
2022-11-24T14:19:57.502Z,1.50
2022-11-24T14:22:43.161Z,1.40
2022-11-24T14:25:24.861Z,1.20
2022-11-24T14:27:51.236Z,1.50
2022-11-24T14:30:21.814Z,1.40
2022-11-24T14:32:58.189Z,1.53
2022-11-24T14:35:33.123Z,1.57
2022-11-24T14:38:02.305Z,1.50
2022-11-24T14:40:37.901Z,1.77
2022-11-24T14:43:20.806Z,1.57
2022-11-24T14:45:56.565Z,1.60
2022-11-24T14:48:28.618Z,1.37
2022-11-24T14:51:06.249Z,1.70
2022-11-24T14:53:34.010Z,1.40
2022-11-24T14:56:09.249Z,1.40
2022-11-24T14:58:41.773Z,1.93
2022-11-24T15:01:11.291Z,1.60
2022-11-24T15:03:37.782Z,1.37
2022-11-24T15:06:04.299Z,1.40
2022-11-24T15:08:46.674Z,1.57
2022-11-24T15:11:13.788Z,1.70
2022-11-24T15:13:51.080Z,2.60
2022-11-24T15:16:20.466Z,2.00
2022-11-24T15:18:48.361Z,1.30
2022-11-24T15:21:19.197Z,1.33
2022-11-24T15:24:06.044Z,1.60
2022-11-24T15:26:38.242Z,1.50
2022-11-24T15:29:07.949Z,2.13
2022-11-24T15:31:34.336Z,1.87
2022-11-24T15:34:00.684Z,2.23
2022-11-24T15:36:27.015Z,1.60
2022-11-24T15:38:53.340Z,1.57
2022-11-24T15:41:22.142Z,1.90
2022-11-24T15:43:48.670Z,1.73
2022-11-24T15:46:15.819Z,1.90
2022-11-24T15:48:42.204Z,2.07
2022-11-24T15:51:14.891Z,1.90
2022-11-24T15:53:46.475Z,2.00
2022-11-24T15:56:20.630Z,1.80
2022-11-24T15:58:46.909Z,2.33
2022-11-24T16:01:13.338Z,3.13
2022-11-24T16:03:47.072Z,2.43
2022-11-24T16:06:24.211Z,2.83
2022-11-24T16:08:52.127Z,2.70
2022-11-24T16:11:18.462Z,3.00
2022-11-24T16:13:51.490Z,2.80
2022-11-24T16:16:19.203Z,2.53
2022-11-24T16:18:45.822Z,2.50
2022-11-24T16:21:12.256Z,2.40
2022-11-24T16:23:38.912Z,2.87
2022-11-24T16:26:05.959Z,3.10
2022-11-24T16:28:32.967Z,2.90
2022-11-24T16:30:59.340Z,3.63
2022-11-24T16:33:25.720Z,3.43
2022-11-24T16:35:52.128Z,3.20
2022-11-24T16:38:19.874Z,2.80
2022-11-24T16:40:58.456Z,2.77
2022-11-24T16:43:24.890Z,3.00
2022-11-24T16:46:17.863Z,3.07
2022-11-24T16:48:45.733Z,3.37
2022-11-24T16:51:13.394Z,3.80
2022-11-24T16:53:40.655Z,3.37
2022-11-24T16:56:07.189Z,3.43
2022-11-24T16:58:36.353Z,2.63
2022-11-24T17:01:04.557Z,2.73
2022-11-24T17:03:33.347Z,2.90
2022-11-24T17:06:01.002Z,3.03
2022-11-24T17:08:30.759Z,2.30
2022-11-24T17:10:57.171Z,2.60
2022-11-24T17:13:24.137Z,2.93
2022-11-24T17:15:54.150Z,2.90
2022-11-24T17:18:25.201Z,3.67
2022-11-24T17:20:52.023Z,3.03
2022-11-24T17:23:19.430Z,4.27
2022-11-24T17:25:45.902Z,2.80
2022-11-24T17:28:12.253Z,4.23
2022-11-24T17:30:38.598Z,3.90
2022-11-24T17:33:05.706Z,3.10
2022-11-24T17:35:34.586Z,3.73
2022-11-24T17:38:01.260Z,3.90
2022-11-24T17:40:29.305Z,3.40
2022-11-24T17:43:00.464Z,3.27
2022-11-24T17:45:28.213Z,3.00
2022-11-24T17:47:56.042Z,3.00
2022-11-24T17:50:25.646Z,3.13
2022-11-24T17:52:53.558Z,3.10
2022-11-24T17:55:19.959Z,2.80
2022-11-24T17:57:46.315Z,3.33
2022-11-24T18:00:13.388Z,3.80
2022-11-24T18:02:39.794Z,3.63
2022-11-24T18:05:06.753Z,3.70
2022-11-24T18:07:36.280Z,3.63
2022-11-24T18:10:03.209Z,5.40
2022-11-24T18:12:29.545Z,4.90
2022-11-24T18:14:55.875Z,7.57
2022-11-24T18:17:22.270Z,8.90
2022-11-24T18:19:48.574Z,7.87
2022-11-24T18:22:14.953Z,7.80
2022-11-24T18:24:41.320Z,7.70
2022-11-24T18:27:07.664Z,7.20
2022-11-24T18:29:33.985Z,7.70
2022-11-24T18:32:00.375Z,7.73
2022-11-24T18:34:26.722Z,7.97
2022-11-24T18:36:53.173Z,7.00
2022-11-24T18:39:19.602Z,6.70
2022-11-24T18:41:46.582Z,7.40
2022-11-24T18:44:12.999Z,8.83
2022-11-24T18:46:39.578Z,8.53
2022-11-24T18:49:06.959Z,10.00
2022-11-24T18:51:33.883Z,9.30
2022-11-24T18:54:02.046Z,7.83
2022-11-24T18:56:28.398Z,7.80
2022-11-24T18:58:56.472Z,7.47
2022-11-24T19:01:28.369Z,7.77
2022-11-24T19:03:59.445Z,8.40
2022-11-24T19:06:31.790Z,9.53
2022-11-24T19:08:59.733Z,9.03
2022-11-24T19:11:28.993Z,10.87
2022-11-24T19:13:56.420Z,10.40
2022-11-24T19:16:23.362Z,8.13
2022-11-24T19:18:54.107Z,9.20
2022-11-24T19:21:21.832Z,10.53
2022-11-24T19:23:49.202Z,9.73
2022-11-24T19:26:15.484Z,11.20
2022-11-24T19:28:41.892Z,9.13
2022-11-24T19:31:11.550Z,9.50
2022-11-24T19:33:38.204Z,8.30
2022-11-24T19:36:04.848Z,9.43
2022-11-24T19:38:32.745Z,8.90
2022-11-24T19:41:06.661Z,9.50
2022-11-24T19:43:33.977Z,8.37
2022-11-24T19:46:06.104Z,8.37
2022-11-24T19:48:34.488Z,8.80
2022-11-24T19:51:01.826Z,7.97
2022-11-24T19:53:28.984Z,8.03
2022-11-24T19:55:55.774Z,7.53
2022-11-24T19:58:22.113Z,7.67
2022-11-24T20:00:48.455Z,7.33
2022-11-24T20:03:14.989Z,8.17
2022-11-24T20:05:41.264Z,7.53
2022-11-24T20:08:07.701Z,7.90
2022-11-24T20:10:34.037Z,6.93
2022-11-24T20:13:00.380Z,7.33
2022-11-24T20:15:26.672Z,7.03
2022-11-24T20:17:53.039Z,8.17
2022-11-24T20:20:19.328Z,7.27
2022-11-24T20:22:46.440Z,7.43
2022-11-24T20:25:12.760Z,6.80
2022-11-24T20:27:39.046Z,7.33
2022-11-24T20:30:06.220Z,7.30
2022-11-24T20:32:32.519Z,8.27
2022-11-24T20:34:58.895Z,7.87
2022-11-24T20:37:25.812Z,7.47
2022-11-24T20:39:52.456Z,8.87
2022-11-24T20:42:18.831Z,7.43
2022-11-24T20:44:45.115Z,7.80
2022-11-24T20:47:11.527Z,7.40
2022-11-24T20:49:37.860Z,7.33
2022-11-24T20:52:04.478Z,7.73
2022-11-24T20:54:30.819Z,7.00
2022-11-24T20:56:57.233Z,6.53
2022-11-24T20:59:25.068Z,6.10
2022-11-24T21:01:52.450Z,7.13
2022-11-24T21:04:22.530Z,6.47
2022-11-24T21:06:49.620Z,6.30
2022-11-24T21:09:16.777Z,6.50
2022-11-24T21:11:43.118Z,5.70
2022-11-24T21:14:10.230Z,6.53
2022-11-24T21:16:38.933Z,6.43
2022-11-24T21:19:08.568Z,6.30
2022-11-24T21:21:37.333Z,6.40
2022-11-24T21:24:06.376Z,5.57
2022-11-24T21:26:37.195Z,5.90
2022-11-24T21:29:03.840Z,6.37
2022-11-24T21:31:34.075Z,6.33
2022-11-24T21:34:00.431Z,6.30
2022-11-24T21:36:26.832Z,6.13
2022-11-24T21:38:55.944Z,6.07
2022-11-24T21:41:24.535Z,5.70
2022-11-24T21:43:57.264Z,5.47
2022-11-24T21:46:24.798Z,5.93
2022-11-24T21:48:51.150Z,5.93
2022-11-24T21:51:20.035Z,5.47
2022-11-24T21:53:47.477Z,5.17
2022-11-24T21:56:17.022Z,5.23
2022-11-24T21:58:48.842Z,5.30
2022-11-24T22:01:17.247Z,5.67
2022-11-24T22:03:43.836Z,6.17
2022-11-24T22:06:10.222Z,6.03
2022-11-24T22:08:36.719Z,5.53
2022-11-24T22:11:06.492Z,6.53
2022-11-24T22:13:33.542Z,5.93
2022-11-24T22:16:02.439Z,5.80
2022-11-24T22:18:33.936Z,5.87
2022-11-24T22:21:02.797Z,6.13
2022-11-24T22:23:30.733Z,5.70
2022-11-24T22:26:02.828Z,5.90
2022-11-24T22:28:36.212Z,6.00
2022-11-24T22:31:13.459Z,6.07
2022-11-24T22:33:39.873Z,7.27
2022-11-24T22:36:07.616Z,6.63
2022-11-24T22:38:34.514Z,6.40
2022-11-24T22:41:02.834Z,6.70
2022-11-24T22:43:31.533Z,6.63
2022-11-24T22:45:57.889Z,6.20
2022-11-24T22:48:24.339Z,6.43
2022-11-24T22:50:50.628Z,7.23
2022-11-24T22:53:16.902Z,6.90
2022-11-24T22:55:45.617Z,6.73
2022-11-24T22:58:11.917Z,6.20
2022-11-24T23:00:38.296Z,6.63
2022-11-24T23:03:04.678Z,6.57
2022-11-24T23:05:32.897Z,6.20
2022-11-24T23:07:59.266Z,5.87
2022-11-24T23:10:25.615Z,5.83
2022-11-24T23:12:51.938Z,6.73
2022-11-24T23:15:18.244Z,6.10
2022-11-24T23:17:44.527Z,6.43
2022-11-24T23:20:11.790Z,7.00
2022-11-24T23:22:38.099Z,6.60
2022-11-24T23:25:04.726Z,7.33
2022-11-24T23:27:31.046Z,6.60
2022-11-24T23:29:57.478Z,5.87
2022-11-24T23:32:23.823Z,6.97
2022-11-24T23:34:50.210Z,7.10
2022-11-24T23:37:16.620Z,7.13
2022-11-24T23:39:42.957Z,7.53
2022-11-24T23:42:09.290Z,6.63
2022-11-24T23:44:35.728Z,6.63
2022-11-24T23:47:02.297Z,6.80
2022-11-24T23:49:29.099Z,6.60
2022-11-24T23:51:55.385Z,6.23
2022-11-24T23:54:21.734Z,6.53
2022-11-24T23:56:50.443Z,6.13
2022-11-24T23:59:17.360Z,6.13
